Map

Track Data

SID SEASON NUMBER BASIN SUBBASIN NAME ISO_TIME NATURE LAT LON WMO_WIND WMO_PRES WMO_AGENCY TRACK_TYPE DIST2LAND LANDFALL IFLAG USA_AGENCY USA_ATCF_ID USA_LAT USA_LON USA_RECORD USA_STATUS USA_WIND USA_PRES USA_SSHS USA_R34_NE USA_R34_SE USA_R34_SW USA_R34_NW USA_R50_NE USA_R50_SE USA_R50_SW USA_R50_NW USA_R64_NE USA_R64_SE USA_R64_SW USA_R64_NW USA_POCI USA_ROCI USA_RMW USA_EYE TOKYO_LAT TOKYO_LON TOKYO_GRADE TOKYO_WIND TOKYO_PRES TOKYO_R50_DIR TOKYO_R50_LONG TOKYO_R50_SHORT TOKYO_R30_DIR TOKYO_R30_LONG TOKYO_R30_SHORT TOKYO_LAND CMA_LAT CMA_LON CMA_CAT CMA_WIND CMA_PRES HKO_LAT HKO_LON HKO_CAT HKO_WIND HKO_PRES NEWDELHI_LAT NEWDELHI_LON NEWDELHI_GRADE NEWDELHI_WIND NEWDELHI_PRES NEWDELHI_CI NEWDELHI_DP NEWDELHI_POCI REUNION_LAT REUNION_LON REUNION_TYPE REUNION_WIND REUNION_PRES REUNION_TNUM REUNION_CI REUNION_RMW REUNION_R34_NE REUNION_R34_SE REUNION_R34_SW REUNION_R34_NW REUNION_R50_NE REUNION_R50_SE REUNION_R50_SW REUNION_R50_NW REUNION_R64_NE REUNION_R64_SE REUNION_R64_SW REUNION_R64_NW BOM_LAT BOM_LON BOM_TYPE BOM_WIND BOM_PRES BOM_TNUM BOM_CI BOM_RMW BOM_R34_NE BOM_R34_SE BOM_R34_SW BOM_R34_NW BOM_R50_NE BOM_R50_SE BOM_R50_SW BOM_R50_NW BOM_R64_NE BOM_R64_SE BOM_R64_SW BOM_R64_NW BOM_ROCI BOM_POCI BOM_EYE BOM_POS_METHOD BOM_PRES_METHOD NADI_LAT NADI_LON NADI_CAT NADI_WIND NADI_PRES WELLINGTON_LAT WELLINGTON_LON WELLINGTON_WIND WELLINGTON_PRES DS824_LAT DS824_LON DS824_STAGE DS824_WIND DS824_PRES TD9636_LAT TD9636_LON TD9636_STAGE TD9636_WIND TD9636_PRES TD9635_LAT TD9635_LON TD9635_WIND TD9635_PRES TD9635_ROCI NEUMANN_LAT NEUMANN_LON NEUMANN_CLASS NEUMANN_WIND NEUMANN_PRES MLC_LAT MLC_LON MLC_CLASS MLC_WIND MLC_PRES USA_GUST BOM_GUST BOM_GUST_PER REUNION_GUST REUNION_GUST_PER USA_SEAHGT USA_SEARAD_NE USA_SEARAD_SE USA_SEARAD_SW USA_SEARAD_NW STORM_SPEED STORM_DIR
1879285N11308 1879 27 NA NA NOT_NAMED 1879-10-11 12:00:00 TS 11.0000 -52.0000 main 620 620 _____________O -1 11.0000 -52.0000 TD 30 11 309
1879285N11308 1879 27 NA NA NOT_NAMED 1879-10-11 15:00:00 TS 11.3601 -52.4498 main 647 643 _____________P -1 11.3601 -52.4498 TD 30 11 308
1879285N11308 1879 27 NA NA NOT_NAMED 1879-10-11 18:00:00 TS 11.7000 -52.9000 main 665 662 _____________O -1 11.7000 -52.9000 TD 30 11 306
1879285N11308 1879 27 NA NA NOT_NAMED 1879-10-11 21:00:00 TS 12.0074 -53.3501 main 688 688 _____________P -1 12.0074 -53.3501 TD 30 11 304
1879285N11308 1879 27 NA NA NOT_NAMED 1879-10-12 00:00:00 TS 12.3000 -53.8000 main 718 717 _____________O -1 12.3000 -53.8000 TD 30 11 304
1879285N11308 1879 27 NA NA NOT_NAMED 1879-10-12 03:00:00 TS 12.6000 -54.2576 main 728 720 _____________P -1 12.6000 -54.2576 TD 32 11 304
1879285N11308 1879 27 NA NA NOT_NAMED 1879-10-12 06:00:00 TS 12.9000 -54.7000 main 722 700 _____________O -1 12.9000 -54.7000 TS 35 10 305
1879285N11308 1879 27 NA NA NOT_NAMED 1879-10-12 09:00:00 TS 13.1849 -55.1152 main 700 675 _____________P -1 13.1849 -55.1152 TS 35 10 308
1879285N11308 1879 27 NA NA NOT_NAMED 1879-10-12 12:00:00 TS 13.5000 -55.5000 main 675 663 _____________O -1 13.5000 -55.5000 TS 35 10 314
1879285N11308 1879 27 NA NA NOT_NAMED 1879-10-12 15:00:00 TS 13.8924 -55.8650 main 660 654 _____________P -1 13.8924 -55.8650 TS 35 11 320
1879285N11308 1879 27 NA NA NOT_NAMED 1879-10-12 18:00:00 TS 14.3000 -56.2000 main 659 655 _____________O -1 14.3000 -56.2000 TS 35 10 321
1879285N11308 1879 27 NA NA NOT_NAMED 1879-10-12 21:00:00 TS 14.6499 -56.5077 main 655 654 _____________P -1 14.6499 -56.5077 TS 35 9 320
1879285N11308 1879 27 NA NA NOT_NAMED 1879-10-13 00:00:00 TS 15.0000 -56.8000 main 662 662 _____________O -1 15.0000 -56.8000 TS 35 9 323
1879285N11308 1879 27 NA NA NOT_NAMED 1879-10-13 03:00:00 TS 15.4000 -57.1000 main 674 674 _____________P -1 15.4000 -57.1000 TS 37 10 324
1879285N11308 1879 27 NA NA NOT_NAMED 1879-10-13 06:00:00 TS 15.8000 -57.4000 main 691 691 _____________O -1 15.8000 -57.4000 TS 40 9 321
1879285N11308 1879 27 NA NA NOT_NAMED 1879-10-13 09:00:00 TS 16.1350 -57.7151 main 702 702 _____________P -1 16.1350 -57.7151 TS 40 9 321
1879285N11308 1879 27 NA NA NOT_NAMED 1879-10-13 12:00:00 TS 16.5000 -58.0000 main 725 725 _____________O -1 16.5000 -58.0000 TS 40 10 330
1879285N11308 1879 27 NA NA NOT_NAMED 1879-10-13 15:00:00 TS 16.9774 -58.2151 main 767 766 _____________P -1 16.9774 -58.2151 TS 40 11 339
1879285N11308 1879 27 NA NA NOT_NAMED 1879-10-13 18:00:00 TS 17.5000 -58.4000 main 766 740 _____________O -1 17.5000 -58.4000 TS 40 11 340
1879285N11308 1879 27 NA NA NOT_NAMED 1879-10-13 21:00:00 TS 18.0000 -58.6001 main 740 717 _____________P -1 18.0000 -58.6001 TS 40 11 339
1879285N11308 1879 27 NA NA NOT_NAMED 1879-10-14 00:00:00 TS 18.5000 -58.8000 main 717 697 _____________O -1 18.5000 -58.8000 TS 40 11 339
1879285N11308 1879 27 NA NA NOT_NAMED 1879-10-14 03:00:00 TS 19.0000 -59.0075 main 698 682 _____________P -1 19.0000 -59.0075 TS 42 11 339
1879285N11308 1879 27 NA NA NOT_NAMED 1879-10-14 06:00:00 TS 19.5000 -59.2000 main 684 672 _____________O -1 19.5000 -59.2000 TS 45 11 340
1879285N11308 1879 27 NA NA NOT_NAMED 1879-10-14 09:00:00 TS 20.0000 -59.3874 main 675 671 _____________P -1 20.0000 -59.3874 TS 45 10 344
1879285N11308 1879 27 NA NA NOT_NAMED 1879-10-14 12:00:00 TS 20.5000 -59.5000 main 681 681 _____________O -1 20.5000 -59.5000 TS 45 10 355
1879285N11308 1879 27 NA NA NOT_NAMED 1879-10-14 15:00:00 TS 21.0000 -59.4803 main 701 701 _____________P -1 21.0000 -59.4803 TS 45 10 6
1879285N11308 1879 27 NA NA NOT_NAMED 1879-10-14 18:00:00 TS 21.5000 -59.4000 main 734 734 _____________O -1 21.5000 -59.4000 TS 45 10 6
1879285N11308 1879 27 NA NA NOT_NAMED 1879-10-14 21:00:00 TS 22.0000 -59.3574 main 761 761 _____________P -1 22.0000 -59.3574 TS 45 10 5
1879285N11308 1879 27 NA NA NOT_NAMED 1879-10-15 00:00:00 TS 22.5000 -59.3000 main 800 800 _____________O -1 22.5000 -59.3000 TS 45 10 8
1879285N11308 1879 27 NA NA NOT_NAMED 1879-10-15 03:00:00 TS 23.0000 -59.2001 main 840 840 _____________P -1 23.0000 -59.2001 TS 47 10 11
1879285N11308 1879 27 NA NA NOT_NAMED 1879-10-15 06:00:00 TS 23.5000 -59.1000 main 883 883 _____________O -1 23.5000 -59.1000 TS 50 10 4
1879285N11308 1879 27 NA NA NOT_NAMED 1879-10-15 09:00:00 TS 23.9847 -59.1163 main 919 919 _____________P -1 23.9847 -59.1163 TS 50 10 5
1879285N11308 1879 27 NA NA NOT_NAMED 1879-10-15 12:00:00 TS 24.5000 -59.0000 main 964 964 _____________O -1 24.5000 -59.0000 TS 50 12 23
1879285N11308 1879 27 NA NA NOT_NAMED 1879-10-15 15:00:00 TS 25.0768 -58.5992 main 1040 1040 _____________P -1 25.0768 -58.5992 TS 50 16 40
1879285N11308 1879 27 NA NA NOT_NAMED 1879-10-15 18:00:00 TS 25.7000 -57.9000 main 1137 1137 _____________O -1 25.7000 -57.9000 TS 50 20 50
1879285N11308 1879 27 NA NA NOT_NAMED 1879-10-15 21:00:00 TS 26.3437 -56.8957 main 1256 1256 _____________P -1 26.3437 -56.8957 TS 52 23 55
1879285N11308 1879 27 NA NA NOT_NAMED 1879-10-16 00:00:00 TS 27.0000 -55.8000 main 1389 1389 _____________O -1 27.0000 -55.8000 TS 55 22 53
1879285N11308 1879 27 NA NA NOT_NAMED 1879-10-16 03:00:00 TS 27.6565 -54.9113 main 1507 1507 _____________P -1 27.6565 -54.9113 TS 55 20 49
1879285N11308 1879 27 NA NA NOT_NAMED 1879-10-16 06:00:00 TS 28.3000 -54.1000 main 1610 1610 _____________O -1 28.3000 -54.1000 TS 55 19 48
1879285N11308 1879 27 NA NA NOT_NAMED 1879-10-16 09:00:00 TS 28.9294 -53.2918 main 1713 1713 _____________P -1 28.9294 -53.2918 TS 55 18 49
1879285N11308 1879 27 NA NA NOT_NAMED 1879-10-16 12:00:00 TS 29.5000 -52.5000 main 1816 1816 _____________O -1 29.5000 -52.5000 TS 55 17 53
1879285N11308 1879 27 NA NA NOT_NAMED 1879-10-16 15:00:00 TS 29.9720 -51.6988 main 1852 1813 _____________P -1 29.9720 -51.6988 TS 55 17 57
1879285N11308 1879 27 NA NA NOT_NAMED 1879-10-16 18:00:00 TS 30.4000 -50.9000 main 1814 1777 _____________O -1 30.4000 -50.9000 TS 55 16 58
1879285N11308 1879 27 NA NA NOT_NAMED 1879-10-16 21:00:00 TS 30.8495 -50.0993 main 1778 1733 _____________P -1 30.8495 -50.0993 TS 55 16 57
1879285N11308 1879 27 NA NA NOT_NAMED 1879-10-17 00:00:00 TS 31.3000 -49.3000 main 1735 1704 _____________O -1 31.3000 -49.3000 TS 55 16 57
1879285N11308 1879 27 NA NA NOT_NAMED 1879-10-17 03:00:00 TS 31.7421 -48.4917 main 1706 1669 _____________P -1 31.7421 -48.4917 TS 55 16 57
1879285N11308 1879 27 NA NA NOT_NAMED 1879-10-17 06:00:00 TS 32.2000 -47.7000 main 1669 1633 _____________O -1 32.2000 -47.7000 TS 55 16 54
1879285N11308 1879 27 NA NA NOT_NAMED 1879-10-17 09:00:00 TS 32.7145 -46.9349 main 1636 1601 _____________P -1 32.7145 -46.9349 TS 55 16 52
1879285N11308 1879 27 NA NA NOT_NAMED 1879-10-17 12:00:00 TS 33.2000 -46.2000 main 1604 1585 _____________O -1 33.2000 -46.2000 TS 55 15 54
1879285N11308 1879 27 NA NA NOT_NAMED 1879-10-17 15:00:00 TS 33.5795 -45.4915 main 1585 1575 _____________P -1 33.5795 -45.4915 TS 55 14 59
1879285N11308 1879 27 NA NA NOT_NAMED 1879-10-17 18:00:00 TS 33.9000 -44.8000 main 1579 1570 _____________O -1 33.9000 -44.8000 TS 55 13 62
1879285N11308 1879 27 NA NA NOT_NAMED 1879-10-17 21:00:00 TS 34.1995 -44.1065 main 1576 1570 _____________P -1 34.1995 -44.1065 TS 55 13 63
1879285N11308 1879 27 NA NA NOT_NAMED 1879-10-18 00:00:00 TS 34.5000 -43.4000 main 1576 1569 _____________O -1 34.5000 -43.4000 TS 55 14 62
1879285N11308 1879 27 NA NA NOT_NAMED 1879-10-18 03:00:00 TS 34.8498 -42.6499 main 1583 1573 _____________P -1 34.8498 -42.6499 TS 55 14 60
1879285N11308 1879 27 NA NA NOT_NAMED 1879-10-18 06:00:00 TS 35.2000 -41.9000 main 1579 1574 _____________O -1 35.2000 -41.9000 TS 55 14 62
1879285N11308 1879 27 NA NA NOT_NAMED 1879-10-18 09:00:00 TS 35.4920 -41.1913 main 1587 1587 _____________P -1 35.4920 -41.1913 TS 55 13 62
1879285N11308 1879 27 NA NA NOT_NAMED 1879-10-18 12:00:00 TS 35.8000 -40.5000 main 1597 1594 _____________O -1 35.8000 -40.5000 TS 55 13 58
1879285N11308 1879 27 NA NA NOT_NAMED 1879-10-18 15:00:00 TS 36.1920 -39.8073 main 1601 1598 _____________P -1 36.1920 -39.8073 TS 55 14 55
1879285N11308 1879 27 NA NA NOT_NAMED 1879-10-18 18:00:00 TS 36.6000 -39.1000 main 1608 1606 _____________O -1 36.6000 -39.1000 TS 55 14 57
1879285N11308 1879 27 NA NA NOT_NAMED 1879-10-18 21:00:00 TS 36.9573 -38.3493 main 1624 1624 _____________P -1 36.9573 -38.3493 TS 55 14 60
1879285N11308 1879 27 NA NA NOT_NAMED 1879-10-19 00:00:00 TS 37.3000 -37.6000 main 1644 1643 _____________O -1 37.3000 -37.6000 TS 55 13 59
1879285N11308 1879 27 NA NA NOT_NAMED 1879-10-19 03:00:00 TS 37.6493 -36.8991 main 1665 1658 _____________P -1 37.6493 -36.8991 TS 55 13 58
1879285N11308 1879 27 NA NA NOT_NAMED 1879-10-19 06:00:00 TS 38.0000 -36.2000 main 1681 1681 _____________O -1 38.0000 -36.2000 TS 55 13 57
1879285N11308 1879 27 NA NA NOT_NAMED 1879-10-19 09:00:00 TS 38.3556 -35.5237 main 1699 1699 _____________P -1 38.3556 -35.5237 TS 55 14 59
1879285N11308 1879 27 NA NA NOT_NAMED 1879-10-19 12:00:00 TS 38.7000 -34.7000 main 1733 1733 _____________O -1 38.7000 -34.7000 TS 55 17 67
1879285N11308 1879 27 NA NA NOT_NAMED 1879-10-19 15:00:00 TS 39.0083 -33.5596 main 1790 1790 _____________P -1 39.0083 -33.5596 TS 55 20 72
1879285N11308 1879 27 NA NA NOT_NAMED 1879-10-19 18:00:00 TS 39.3000 -32.3000 main 1863 1817 _____________O -1 39.3000 -32.3000 TS 55 20 73
1879285N11308 1879 27 NA NA NOT_NAMED 1879-10-19 21:00:00 TS 39.6002 -31.0823 main 1817 1756 _____________P -1 39.6002 -31.0823 TS 55 19 71
1879285N11308 1879 27 NA NA NOT_NAMED 1879-10-20 00:00:00 TS 39.9000 -30.0000 main 1748 1673 _____________O -1 39.9000 -30.0000 TS 55 16 67
1879285N11308 1879 27 NA NA NOT_NAMED 1879-10-20 03:00:00 TS 40.2056 -29.1889 main 1673 1607 _____________P -1 40.2056 -29.1889 TS 55 13 62
1879285N11308 1879 27 NA NA NOT_NAMED 1879-10-20 06:00:00 TS 40.5000 -28.5000 main 1607 1544 _____________O -1 40.5000 -28.5000 TS 55 12 63
1879285N11308 1879 27 NA NA NOT_NAMED 1879-10-20 09:00:00 TS 40.7617 -27.7713 main 1541 1471 _____________P -1 40.7617 -27.7713 TS 55 12 66
1879285N11308 1879 27 NA NA NOT_NAMED 1879-10-20 12:00:00 ET 41.0000 -27.0000 main 1471 _____________O -1 41.0000 -27.0000 EX 55 13 68

About IBTrACS Database

This database is a web-friendly format of International Best Track Archive for Climate Stewardship (IBTrACS), a global best track data archive curated by NOAA dating back to 1842.

Updated: 2021-10-25